PWSweather.com
Personal Weather Stations
Station Observations
AC5JC
Greenleaf Peninsula, Waco, Waco, TX 76710

Greenleaf Peninsula, WacoWaco, TX 76710

Lat: 31.565, Lon: -97.198

Elevation: 570

Station Type: Ambient WS-1400IP

http://ac5jc.dyndns.org

Latest ConditionsUpdated 7:05:00 AM CST Sunday, Nov 18, 2018
Currently Today's Max Today's Min Today's Average
Temperature 45.0°F7.2°C 62.2°F16.8°C 45.0°F7.2°C 52.5°F11.4°C
Dew Point 38.4°F3.6°C 57.2°F14.0°C 38.2°F3.4°C 46.2°F7.9°C
Winds 7.6 mph NW12.2 kmh NW 10.2 mph -16.4 kmh - - 5.4 mph 8.7 kmh
Wind Gusts 15.0 mph24.1 kmh 19.9 mph32.0 kmh - -
Humidity 77% 88% 72% 79%
Pressure 29.65 in1004.1 mb 29.65 in1004.1 mb 29.50 in999.0 mb -
Hour Temp Dew Point Humidity Winds Wind Gusts Pressure Precip Precip Rate Daily Precip Total
07:05 AM 45.0°F7.2°C 38.4°F3.6°C 77% 7.6 mph NW12.2 kmh NW 15.0 mph24.1 kmh 29.65 in1004.1 mb 0.00 in0.0 mm 0.00 in0.0 mm 0.00 in0.0 mm
07:00 AM 45.0°F7.2°C 38.2°F3.4°C 77% 7.3 mph NNW11.7 kmh NNW 15.0 mph24.1 kmh 29.65 in1004.1 mb 0.00 in0.0 mm 0.00 in0.0 mm 0.00 in0.0 mm
06:55 AM 45.0°F7.2°C 38.2°F3.4°C 77% 5.2 mph NW8.4 kmh NW 15.0 mph24.1 kmh 29.64 in1003.7 mb 0.00 in0.0 mm 0.00 in0.0 mm 0.00 in0.0 mm
06:50 AM 45.0°F7.2°C 38.3°F3.5°C 77% 8.4 mph NNW13.5 kmh NNW 17.4 mph28.0 kmh 29.64 in1003.7 mb 0.00 in0.0 mm 0.00 in0.0 mm 0.00 in0.0 mm
06:45 AM 45.4°F7.4°C 38.8°F3.8°C 78% 7.0 mph NNW11.3 kmh NNW 12.3 mph19.8 kmh 29.65 in1004.1 mb 0.00 in0.0 mm 0.00 in0.0 mm 0.00 in0.0 mm
06:40 AM 45.5°F7.5°C 39.0°F3.9°C 78% 4.4 mph NW7.1 kmh NW 12.3 mph19.8 kmh 29.65 in1004.1 mb 0.00 in0.0 mm 0.00 in0.0 mm 0.00 in0.0 mm
06:35 AM 45.5°F7.5°C 39.0°F3.9°C 78% 5.3 mph N8.5 kmh N 9.8 mph15.8 kmh 29.64 in1003.7 mb 0.00 in0.0 mm 0.00 in0.0 mm 0.00 in0.0 mm
06:30 AM 45.5°F7.5°C 39.0°F3.9°C 78% 6.3 mph NW10.1 kmh NW 9.8 mph15.8 kmh 29.64 in1003.7 mb 0.00 in0.0 mm 0.00 in0.0 mm 0.00 in0.0 mm
06:25 AM 45.8°F7.7°C 39.7°F4.3°C 79% 5.8 mph NW9.3 kmh NW 15.0 mph24.1 kmh 29.65 in1004.1 mb 0.00 in0.0 mm 0.00 in0.0 mm 0.00 in0.0 mm
06:20 AM 45.9°F7.7°C 39.8°F4.3°C 79% 5.9 mph N9.5 kmh N 9.8 mph15.8 kmh 29.64 in1003.7 mb 0.00 in0.0 mm 0.00 in0.0 mm 0.00 in0.0 mm
06:15 AM 45.9°F7.7°C 39.8°F4.3°C 79% 5.4 mph NW8.7 kmh NW 15.0 mph24.1 kmh 29.64 in1003.7 mb 0.00 in0.0 mm 0.00 in0.0 mm 0.00 in0.0 mm
06:10 AM 45.9°F7.7°C 39.8°F4.3°C 79% 7.6 mph NW12.2 kmh NW 17.4 mph28.0 kmh 29.64 in1003.7 mb 0.00 in0.0 mm 0.00 in0.0 mm 0.00 in0.0 mm
06:05 AM 46.2°F7.9°C 40.0°F4.4°C 79% 4.6 mph NW7.4 kmh NW 7.4 mph11.9 kmh 29.63 in1003.4 mb 0.00 in0.0 mm 0.00 in0.0 mm 0.00 in0.0 mm
06:00 AM 46.2°F7.9°C 40.1°F4.5°C 79% 8.8 mph NNW14.2 kmh NNW 17.4 mph28.0 kmh 29.63 in1003.4 mb 0.00 in0.0 mm 0.00 in0.0 mm 0.00 in0.0 mm
05:55 AM 46.2°F7.9°C 40.1°F4.5°C 79% 6.5 mph NW10.5 kmh NW 19.9 mph32.0 kmh 29.64 in1003.7 mb 0.00 in0.0 mm 0.00 in0.0 mm 0.00 in0.0 mm
05:50 AM 46.3°F7.9°C 40.1°F4.5°C 79% 7.7 mph NW12.4 kmh NW 12.3 mph19.8 kmh 29.64 in1003.7 mb 0.00 in0.0 mm 0.00 in0.0 mm 0.00 in0.0 mm
05:45 AM 46.4°F8.0°C 40.2°F4.6°C 79% 6.4 mph NW10.3 kmh NW 12.3 mph19.8 kmh 29.63 in1003.4 mb 0.00 in0.0 mm 0.00 in0.0 mm 0.00 in0.0 mm
05:40 AM 46.5°F8.1°C 40.2°F4.6°C 79% 6.2 mph NW10.0 kmh NW 9.8 mph15.8 kmh 29.62 in1003.0 mb 0.00 in0.0 mm 0.00 in0.0 mm 0.00 in0.0 mm
05:35 AM 46.6°F8.1°C 40.2°F4.6°C 78% 4.6 mph NW7.4 kmh NW 15.0 mph24.1 kmh 29.62 in1003.0 mb 0.00 in0.0 mm 0.00 in0.0 mm 0.00 in0.0 mm
05:30 AM 46.6°F8.1°C 40.1°F4.5°C 78% 6.5 mph NW10.5 kmh NW 12.3 mph19.8 kmh 29.62 in1003.0 mb 0.00 in0.0 mm 0.00 in0.0 mm 0.00 in0.0 mm
05:25 AM 46.7°F8.2°C 40.3°F4.6°C 78% 10.2 mph NW16.4 kmh NW 12.3 mph19.8 kmh 29.61 in1002.7 mb 0.00 in0.0 mm 0.00 in0.0 mm 0.00 in0.0 mm
05:20 AM 46.8°F8.2°C 40.4°F4.7°C 78% 5.8 mph NW9.3 kmh NW 15.0 mph24.1 kmh 29.62 in1003.0 mb 0.00 in0.0 mm 0.00 in0.0 mm 0.00 in0.0 mm
05:15 AM 46.8°F8.2°C 40.6°F4.8°C 79% 7.3 mph NW11.7 kmh NW 15.0 mph24.1 kmh 29.62 in1003.0 mb 0.00 in0.0 mm 0.00 in0.0 mm 0.00 in0.0 mm
05:10 AM 46.9°F8.3°C 40.7°F4.8°C 79% 6.8 mph NNW10.9 kmh NNW 9.8 mph15.8 kmh 29.61 in1002.7 mb 0.00 in0.0 mm 0.00 in0.0 mm 0.00 in0.0 mm
05:05 AM 46.9°F8.3°C 40.5°F4.7°C 78% 4.5 mph NW7.2 kmh NW 9.8 mph15.8 kmh 29.61 in1002.7 mb 0.00 in0.0 mm 0.00 in0.0 mm 0.00 in0.0 mm
05:00 AM 46.9°F8.3°C 40.6°F4.8°C 79% 7.6 mph NW12.2 kmh NW 15.0 mph24.1 kmh 29.61 in1002.7 mb 0.00 in0.0 mm 0.00 in0.0 mm 0.00 in0.0 mm
04:55 AM 46.9°F8.3°C 40.4°F4.7°C 78% 8.7 mph NNW14.0 kmh NNW 15.0 mph24.1 kmh 29.61 in1002.7 mb 0.00 in0.0 mm 0.00 in0.0 mm 0.00 in0.0 mm
04:50 AM 47.0°F8.3°C 40.5°F4.7°C 78% 8.2 mph NW13.2 kmh NW 12.3 mph19.8 kmh 29.61 in1002.7 mb 0.00 in0.0 mm 0.00 in0.0 mm 0.00 in0.0 mm
04:45 AM 47.3°F8.5°C 40.6°F4.8°C 77% 6.6 mph WNW10.6 kmh WNW 15.0 mph24.1 kmh 29.61 in1002.7 mb 0.00 in0.0 mm 0.00 in0.0 mm 0.00 in0.0 mm
04:40 AM 47.6°F8.7°C 40.8°F4.9°C 77% 6.9 mph NW11.1 kmh NW 15.0 mph24.1 kmh 29.61 in1002.7 mb 0.00 in0.0 mm 0.00 in0.0 mm 0.00 in0.0 mm
04:35 AM 47.7°F8.7°C 40.8°F4.9°C 77% 7.9 mph WNW12.7 kmh WNW 15.0 mph24.1 kmh 29.61 in1002.7 mb 0.00 in0.0 mm 0.00 in0.0 mm 0.00 in0.0 mm
04:30 AM 47.7°F8.7°C 41.0°F5.0°C 77% 6.8 mph NW10.9 kmh NW 12.3 mph19.8 kmh 29.60 in1002.4 mb 0.00 in0.0 mm 0.00 in0.0 mm 0.00 in0.0 mm
04:25 AM 47.7°F8.7°C 40.8°F4.9°C 77% 5.4 mph NNW8.7 kmh NNW 12.3 mph19.8 kmh 29.60 in1002.4 mb 0.00 in0.0 mm 0.00 in0.0 mm 0.00 in0.0 mm
04:20 AM 47.7°F8.7°C 40.9°F4.9°C 77% 5.9 mph NW9.5 kmh NW 12.3 mph19.8 kmh 29.60 in1002.4 mb 0.00 in0.0 mm 0.00 in0.0 mm 0.00 in0.0 mm
04:15 AM 47.7°F8.7°C 40.9°F4.9°C 77% 3.9 mph NNW6.3 kmh NNW 7.4 mph11.9 kmh 29.60 in1002.4 mb 0.00 in0.0 mm 0.00 in0.0 mm 0.00 in0.0 mm
04:10 AM 47.8°F8.8°C 40.8°F4.9°C 77% 2.4 mph WSW3.9 kmh WSW 4.9 mph7.9 kmh 29.60 in1002.4 mb 0.00 in0.0 mm 0.00 in0.0 mm 0.00 in0.0 mm
04:05 AM 47.9°F8.8°C 40.9°F4.9°C 76% 3.9 mph W6.3 kmh W 7.4 mph11.9 kmh 29.59 in1002.0 mb 0.00 in0.0 mm 0.00 in0.0 mm 0.00 in0.0 mm
04:00 AM 48.6°F9.2°C 41.2°F5.1°C 76% 4.7 mph W7.6 kmh W 12.3 mph19.8 kmh 29.59 in1002.0 mb 0.00 in0.0 mm 0.00 in0.0 mm 0.00 in0.0 mm
03:55 AM 48.6°F9.2°C 40.9°F4.9°C 75% 7.3 mph WNW11.7 kmh WNW 17.4 mph28.0 kmh 29.59 in1002.0 mb 0.00 in0.0 mm 0.00 in0.0 mm 0.00 in0.0 mm
03:50 AM 48.6°F9.2°C 40.7°F4.8°C 74% 6.0 mph NW9.7 kmh NW 12.3 mph19.8 kmh 29.59 in1002.0 mb 0.00 in0.0 mm 0.00 in0.0 mm 0.00 in0.0 mm
03:45 AM 49.0°F9.4°C 41.1°F5.1°C 74% 4.2 mph W6.8 kmh W 9.8 mph15.8 kmh 29.59 in1002.0 mb 0.00 in0.0 mm 0.00 in0.0 mm 0.00 in0.0 mm
03:40 AM 49.6°F9.8°C 41.6°F5.3°C 74% 5.3 mph NW8.5 kmh NW 9.8 mph15.8 kmh 29.58 in1001.7 mb 0.00 in0.0 mm 0.00 in0.0 mm 0.00 in0.0 mm
03:35 AM 49.6°F9.8°C 41.7°F5.4°C 74% 7.4 mph NW11.9 kmh NW 12.3 mph19.8 kmh 29.58 in1001.7 mb 0.00 in0.0 mm 0.00 in0.0 mm 0.00 in0.0 mm
03:30 AM 49.6°F9.8°C 41.7°F5.4°C 74% 3.6 mph WNW5.8 kmh WNW 9.8 mph15.8 kmh 29.58 in1001.7 mb 0.00 in0.0 mm 0.00 in0.0 mm 0.00 in0.0 mm
03:25 AM 49.7°F9.8°C 41.8°F5.4°C 74% 4.3 mph NW6.9 kmh NW 12.3 mph19.8 kmh 29.57 in1001.4 mb 0.00 in0.0 mm 0.00 in0.0 mm 0.00 in0.0 mm
03:20 AM 51.1°F10.6°C 43.0°F6.1°C 74% 6.1 mph NW9.8 kmh NW 12.3 mph19.8 kmh 29.57 in1001.4 mb 0.00 in0.0 mm 0.00 in0.0 mm 0.00 in0.0 mm
03:15 AM 51.3°F10.7°C 42.9°F6.1°C 73% 6.1 mph WNW9.8 kmh WNW 12.3 mph19.8 kmh 29.57 in1001.4 mb 0.00 in0.0 mm 0.00 in0.0 mm 0.00 in0.0 mm
03:10 AM 51.3°F10.7°C 42.9°F6.1°C 73% 4.9 mph WNW7.9 kmh WNW 9.8 mph15.8 kmh 29.57 in1001.4 mb 0.00 in0.0 mm 0.00 in0.0 mm 0.00 in0.0 mm
03:05 AM 51.5°F10.8°C 43.1°F6.2°C 73% 7.6 mph NW12.2 kmh NW 17.4 mph28.0 kmh 29.57 in1001.4 mb 0.00 in0.0 mm 0.00 in0.0 mm 0.00 in0.0 mm
03:00 AM 52.3°F11.3°C 43.8°F6.6°C 73% 8.9 mph NW14.3 kmh NW 15.0 mph24.1 kmh 29.57 in1001.4 mb 0.00 in0.0 mm 0.00 in0.0 mm 0.00 in0.0 mm
02:55 AM 52.3°F11.3°C 43.5°F6.4°C 72% 3.9 mph WNW6.3 kmh WNW 7.4 mph11.9 kmh 29.56 in1001.0 mb 0.00 in0.0 mm 0.00 in0.0 mm 0.00 in0.0 mm
02:50 AM 52.3°F11.3°C 43.7°F6.5°C 72% 7.7 mph NW12.4 kmh NW 17.4 mph28.0 kmh 29.56 in1001.0 mb 0.00 in0.0 mm 0.00 in0.0 mm 0.00 in0.0 mm
02:45 AM 52.5°F11.4°C 44.0°F6.7°C 73% 4.8 mph NW7.7 kmh NW 9.8 mph15.8 kmh 29.55 in1000.7 mb 0.00 in0.0 mm 0.00 in0.0 mm 0.00 in0.0 mm
02:40 AM 54.1°F12.3°C 45.8°F7.7°C 73% 5.9 mph NW9.5 kmh NW 9.8 mph15.8 kmh 29.55 in1000.7 mb 0.00 in0.0 mm 0.00 in0.0 mm 0.00 in0.0 mm
02:35 AM 54.3°F12.4°C 45.9°F7.7°C 73% 4.5 mph NW7.2 kmh NW 9.8 mph15.8 kmh 29.55 in1000.7 mb 0.00 in0.0 mm 0.00 in0.0 mm 0.00 in0.0 mm
02:30 AM 54.3°F12.4°C 45.6°F7.6°C 72% 6.6 mph NNW10.6 kmh NNW 17.4 mph28.0 kmh 29.55 in1000.7 mb 0.00 in0.0 mm 0.00 in0.0 mm 0.00 in0.0 mm
02:25 AM 54.4°F12.4°C 46.5°F8.1°C 75% 2.1 mph NNW3.4 kmh NNW 7.4 mph11.9 kmh 29.55 in1000.7 mb 0.00 in0.0 mm 0.00 in0.0 mm 0.00 in0.0 mm
02:20 AM 59.9°F15.5°C 53.7°F12.1°C 80% 6.0 mph NNW9.7 kmh NNW 12.3 mph19.8 kmh 29.54 in1000.3 mb 0.00 in0.0 mm 0.00 in0.0 mm 0.00 in0.0 mm
02:15 AM 60.3°F15.7°C 56.2°F13.4°C 86% 8.4 mph NW13.5 kmh NW 15.0 mph24.1 kmh 29.54 in1000.3 mb 0.00 in0.0 mm 0.00 in0.0 mm 0.00 in0.0 mm
02:10 AM 60.3°F15.7°C 56.7°F13.7°C 88% 4.0 mph NW6.4 kmh NW 12.3 mph19.8 kmh 29.53 in1000.0 mb 0.00 in0.0 mm 0.00 in0.0 mm 0.00 in0.0 mm
02:05 AM 60.3°F15.7°C 56.5°F13.6°C 87% 2.0 mph WNW3.2 kmh WNW 4.9 mph7.9 kmh 29.52 in999.7 mb 0.00 in0.0 mm 0.00 in0.0 mm 0.00 in0.0 mm
02:00 AM 61.5°F16.4°C 57.2°F14.0°C 86% 2.6 mph WNW4.2 kmh WNW 9.8 mph15.8 kmh 29.53 in1000.0 mb 0.00 in0.0 mm 0.00 in0.0 mm 0.00 in0.0 mm
01:55 AM 61.7°F16.5°C 56.6°F13.7°C 83% 1.5 mph NW2.4 kmh NW 7.4 mph11.9 kmh 29.52 in999.7 mb 0.00 in0.0 mm 0.00 in0.0 mm 0.00 in0.0 mm
01:50 AM 61.7°F16.5°C 56.3°F13.5°C 82% 1.8 mph NW2.9 kmh NW 4.9 mph7.9 kmh 29.52 in999.7 mb 0.00 in0.0 mm 0.00 in0.0 mm 0.00 in0.0 mm
01:45 AM 61.8°F16.6°C 56.3°F13.5°C 82% 0.7 mph SW1.1 kmh SW 2.5 mph4.0 kmh 29.51 in999.3 mb 0.00 in0.0 mm 0.00 in0.0 mm 0.00 in0.0 mm
01:40 AM 62.2°F16.8°C 56.3°F13.5°C 81% 3.1 mph S5.0 kmh S 7.4 mph11.9 kmh 29.50 in999.0 mb 0.00 in0.0 mm 0.00 in0.0 mm 0.00 in0.0 mm
01:35 AM 62.2°F16.8°C 56.3°F13.5°C 81% 3.1 mph S5.0 kmh S 7.4 mph11.9 kmh 29.50 in999.0 mb 0.00 in0.0 mm 0.00 in0.0 mm 0.00 in0.0 mm
01:30 AM 62.2°F16.8°C 56.6°F13.7°C 82% 4.9 mph S7.9 kmh S 9.8 mph15.8 kmh 29.51 in999.3 mb 0.00 in0.0 mm 0.00 in0.0 mm 0.00 in0.0 mm
01:25 AM 62.2°F16.8°C 56.6°F13.7°C 82% 3.4 mph SSW5.5 kmh SSW 7.4 mph11.9 kmh 29.51 in999.3 mb 0.00 in0.0 mm 0.00 in0.0 mm 0.00 in0.0 mm
01:20 AM 62.2°F16.8°C 56.6°F13.7°C 82% 1.3 mph S2.1 kmh S 4.9 mph7.9 kmh 29.50 in999.0 mb 0.00 in0.0 mm 0.00 in0.0 mm 0.00 in0.0 mm
01:15 AM 62.2°F16.8°C 56.6°F13.7°C 82% Calm Calm 2.5 mph4.0 kmh 29.52 in999.7 mb 0.00 in0.0 mm 0.00 in0.0 mm 0.00 in0.0 mm
01:10 AM 62.2°F16.8°C 56.6°F13.7°C 82% 2.4 mph S3.9 kmh S 7.4 mph11.9 kmh 29.51 in999.3 mb 0.00 in0.0 mm 0.00 in0.0 mm 0.00 in0.0 mm
01:05 AM 62.2°F16.8°C 56.8°F13.8°C 82% 1.8 mph S2.9 kmh S 4.9 mph7.9 kmh 29.50 in999.0 mb 0.00 in0.0 mm 0.00 in0.0 mm 0.00 in0.0 mm
01:00 AM 61.0°F16.1°C 56.1°F13.4°C 84% 6.4 mph S10.3 kmh S 15.0 mph24.1 kmh 29.51 in999.3 mb 0.00 in0.0 mm 0.00 in0.0 mm 0.00 in0.0 mm
12:55 AM 60.9°F16.1°C 56.2°F13.4°C 85% 6.2 mph S10.0 kmh S 9.8 mph15.8 kmh 29.51 in999.3 mb 0.00 in0.0 mm 0.00 in0.0 mm 0.00 in0.0 mm
12:50 AM 60.8°F16.0°C 56.3°F13.5°C 85% 3.0 mph S4.8 kmh S 7.4 mph11.9 kmh 29.50 in999.0 mb 0.00 in0.0 mm 0.00 in0.0 mm 0.00 in0.0 mm
12:45 AM 60.8°F16.0°C 56.5°F13.6°C 86% 6.5 mph S10.5 kmh S 12.3 mph19.8 kmh 29.50 in999.0 mb 0.00 in0.0 mm 0.00 in0.0 mm 0.00 in0.0 mm
12:40 AM 60.6°F15.9°C 56.4°F13.6°C 86% 4.1 mph SSE6.6 kmh SSE 7.4 mph11.9 kmh 29.50 in999.0 mb 0.00 in0.0 mm 0.00 in0.0 mm 0.00 in0.0 mm
12:35 AM 60.6°F15.9°C 56.7°F13.7°C 87% 7.3 mph SSE11.7 kmh SSE 12.3 mph19.8 kmh 29.50 in999.0 mb 0.00 in0.0 mm 0.00 in0.0 mm 0.00 in0.0 mm
12:30 AM 60.6°F15.9°C 56.5°F13.6°C 86% 4.3 mph S6.9 kmh S 7.4 mph11.9 kmh 29.50 in999.0 mb 0.00 in0.0 mm 0.00 in0.0 mm 0.00 in0.0 mm
12:25 AM 60.6°F15.9°C 56.2°F13.4°C 86% 6.1 mph SSE9.8 kmh SSE 9.8 mph15.8 kmh 29.50 in999.0 mb 0.00 in0.0 mm 0.00 in0.0 mm 0.00 in0.0 mm
12:20 AM 60.2°F15.7°C 56.2°F13.4°C 87% 5.9 mph SSE9.5 kmh SSE 12.3 mph19.8 kmh 29.50 in999.0 mb 0.00 in0.0 mm 0.00 in0.0 mm 0.00 in0.0 mm
12:15 AM 60.0°F15.6°C 56.1°F13.4°C 87% 4.5 mph SSE7.2 kmh SSE 7.4 mph11.9 kmh 29.50 in999.0 mb 0.00 in0.0 mm 0.00 in0.0 mm 0.00 in0.0 mm
12:10 AM 59.9°F15.5°C 56.0°F13.3°C 87% 5.1 mph SSE8.2 kmh SSE 9.8 mph15.8 kmh 29.50 in999.0 mb 0.00 in0.0 mm 0.00 in0.0 mm 0.00 in0.0 mm
12:05 AM 59.9°F15.5°C 56.0°F13.3°C 87% 4.2 mph SSE6.8 kmh SSE 7.4 mph11.9 kmh 29.50 in999.0 mb 0.00 in0.0 mm 0.00 in0.0 mm 0.00 in0.0 mm
12:00 AM 60.1°F15.6°C 56.2°F13.4°C 87% 3.3 mph SSE5.3 kmh SSE 4.9 mph7.9 kmh 29.50 in999.0 mb 0.00 in0.0 mm 0.00 in0.0 mm 0.00 in0.0 mm